createdAt,value
2023-03-13T00:02:36.421Z,55.88
2023-03-13T00:05:38.114Z,56.08
2023-03-13T00:08:40.550Z,56.17
2023-03-13T00:11:43.818Z,56.31
2023-03-13T00:14:45.601Z,56.44
2023-03-13T00:17:47.274Z,56.68
2023-03-13T00:20:49.981Z,56.83
2023-03-13T00:23:52.069Z,56.77
2023-03-13T00:26:54.839Z,56.84
2023-03-13T00:29:56.520Z,57.06
2023-03-13T00:32:58.435Z,57.31
2023-03-13T00:36:03.194Z,57.46
2023-03-13T00:39:06.734Z,57.64
2023-03-13T00:42:09.509Z,57.96
2023-03-13T00:45:11.267Z,57.95
2023-03-13T00:48:12.982Z,58.31
2023-03-13T00:51:16.613Z,58.61
2023-03-13T00:54:18.337Z,58.86
2023-03-13T00:57:20.094Z,58.97
2023-03-13T01:00:21.948Z,59.19
2023-03-13T01:03:27.259Z,59.47
2023-03-13T01:06:30.959Z,59.65
2023-03-13T01:09:33.063Z,60.01
2023-03-13T01:12:34.856Z,60.27
2023-03-13T01:15:36.673Z,60.43
2023-03-13T01:18:41.647Z,60.71
2023-03-13T01:21:45.209Z,60.88
2023-03-13T01:24:51.610Z,61.06
2023-03-13T01:27:53.342Z,61.21
2023-03-13T01:30:56.268Z,61.46
2023-03-13T01:34:00.861Z,61.50
2023-03-13T01:37:02.929Z,61.86
2023-03-13T01:40:05.052Z,61.96
2023-03-13T01:43:27.190Z,62.10
2023-03-13T01:46:30.811Z,62.30
2023-03-13T01:49:39.892Z,62.38
2023-03-13T01:52:45.932Z,62.71
2023-03-13T01:55:55.022Z,62.68
2023-03-13T01:58:58.703Z,62.87
2023-03-13T02:02:04.045Z,63.00
2023-03-13T02:05:06.950Z,63.08
2023-03-13T02:08:18.438Z,63.09
2023-03-13T02:11:34.811Z,63.24
2023-03-13T02:14:40.563Z,63.36
2023-03-13T02:17:43.991Z,63.41
2023-03-13T02:20:47.471Z,63.44
2023-03-13T02:24:09.287Z,63.57
2023-03-13T02:27:11.713Z,63.67
2023-03-13T02:30:14.751Z,63.77
2023-03-13T02:33:19.173Z,64.00
2023-03-13T02:36:22.120Z,64.18
2023-03-13T02:39:25.765Z,64.35
2023-03-13T02:42:28.857Z,64.34
2023-03-13T02:45:30.720Z,64.57
2023-03-13T02:48:45.145Z,64.60
2023-03-13T02:51:47.484Z,64.79
2023-03-13T02:54:54.502Z,64.91
2023-03-13T02:57:56.516Z,64.99
2023-03-13T03:01:06.985Z,65.29
2023-03-13T03:04:09.628Z,65.42
2023-03-13T03:07:11.411Z,65.67
2023-03-13T03:10:13.881Z,65.70
2023-03-13T03:13:15.848Z,65.44
2023-03-13T03:16:20.726Z,65.80
2023-03-13T03:19:22.500Z,66.03
2023-03-13T03:22:24.266Z,66.26
2023-03-13T03:25:26.842Z,66.36
2023-03-13T03:28:29.194Z,66.66
2023-03-13T03:31:31.384Z,66.83
2023-03-13T03:34:33.634Z,67.00
2023-03-13T03:37:35.607Z,67.04
2023-03-13T03:40:37.707Z,67.19
2023-03-13T03:43:39.711Z,67.01
2023-03-13T03:46:41.925Z,67.17
2023-03-13T03:49:43.758Z,67.35
2023-03-13T03:52:46.316Z,67.64
2023-03-13T03:55:48.203Z,68.04
2023-03-13T03:58:50.290Z,68.30
2023-03-13T04:02:04.071Z,68.42
2023-03-13T04:05:06.916Z,68.40
2023-03-13T04:08:10.339Z,68.85
2023-03-13T04:11:12.193Z,69.17
2023-03-13T04:14:16.968Z,68.63
2023-03-13T04:17:19.722Z,68.91
2023-03-13T04:20:21.788Z,69.25
2023-03-13T04:23:23.630Z,69.36
2023-03-13T04:26:27.039Z,69.43
2023-03-13T04:29:30.461Z,69.61
2023-03-13T04:32:58.144Z,69.68
2023-03-13T04:36:32.209Z,69.88
2023-03-13T04:39:43.762Z,69.98
2023-03-13T04:43:12.473Z,70.22
2023-03-13T04:46:17.810Z,70.42
2023-03-13T04:49:35.163Z,70.57
2023-03-13T04:53:09.090Z,70.72
2023-03-13T04:56:42.643Z,70.88
2023-03-13T05:00:07.541Z,71.01
2023-03-13T05:03:17.009Z,71.10
2023-03-13T05:06:28.818Z,70.67
2023-03-13T05:09:48.898Z,70.97
2023-03-13T05:13:11.642Z,71.16
2023-03-13T05:16:31.692Z,71.23
2023-03-13T05:19:53.663Z,71.26
2023-03-13T05:23:15.070Z,71.47
2023-03-13T05:26:37.051Z,71.44
2023-03-13T05:29:51.581Z,71.45
2023-03-13T05:33:19.636Z,71.71
2023-03-13T05:36:38.466Z,71.79
2023-03-13T05:39:58.550Z,71.71
2023-03-13T05:43:20.907Z,71.38
2023-03-13T05:46:41.236Z,71.04
2023-03-13T05:50:03.099Z,71.06
2023-03-13T05:53:04.813Z,71.29
2023-03-13T05:56:27.299Z,71.47
2023-03-13T05:59:51.851Z,71.41
2023-03-13T06:03:14.230Z,71.26
2023-03-13T06:06:18.221Z,71.31
2023-03-13T06:09:24.146Z,71.37
2023-03-13T06:12:27.227Z,71.45
2023-03-13T06:15:28.969Z,71.28
2023-03-13T06:18:41.250Z,71.31
2023-03-13T06:21:43.081Z,71.19
2023-03-13T06:24:46.212Z,71.37
2023-03-13T06:27:47.874Z,71.31
2023-03-13T06:30:49.664Z,71.37
2023-03-13T06:33:55.655Z,71.38
2023-03-13T06:36:58.165Z,71.46
2023-03-13T06:39:59.964Z,71.45
2023-03-13T06:43:01.754Z,71.54
2023-03-13T06:46:04.706Z,71.61
2023-03-13T06:49:07.663Z,71.41
2023-03-13T06:52:09.422Z,71.52
2023-03-13T06:55:12.218Z,71.42
2023-03-13T06:58:30.618Z,71.36
2023-03-13T07:01:33.663Z,71.39
2023-03-13T07:04:35.330Z,71.44
2023-03-13T07:07:37.176Z,71.39
2023-03-13T07:10:38.860Z,71.19
2023-03-13T07:13:40.721Z,71.28
2023-03-13T07:16:43.218Z,71.01
2023-03-13T07:19:45.109Z,70.98
2023-03-13T07:22:51.679Z,70.84
2023-03-13T07:25:55.581Z,70.72
2023-03-13T07:28:57.296Z,70.64
2023-03-13T07:31:59.031Z,70.40
2023-03-13T07:35:02.800Z,70.05
2023-03-13T07:38:04.483Z,70.00
2023-03-13T07:41:06.269Z,69.86
2023-03-13T07:44:08.255Z,69.93
2023-03-13T07:47:10.340Z,69.77
2023-03-13T07:50:12.670Z,69.53
2023-03-13T07:53:20.348Z,69.44
2023-03-13T07:56:23.827Z,69.36
2023-03-13T07:59:25.830Z,69.12
2023-03-13T08:02:28.667Z,69.11
2023-03-13T08:05:33.999Z,68.99
2023-03-13T08:08:37.119Z,68.86
2023-03-13T08:11:43.929Z,68.80
2023-03-13T08:14:45.844Z,68.79
2023-03-13T08:17:47.639Z,68.55
2023-03-13T08:20:49.861Z,68.52
2023-03-13T08:23:57.275Z,68.43
2023-03-13T08:26:59.108Z,68.33
2023-03-13T08:30:00.882Z,68.15
2023-03-13T08:33:02.871Z,68.03
2023-03-13T08:36:24.425Z,67.97
2023-03-13T08:39:26.562Z,67.72
2023-03-13T08:42:28.279Z,67.86
2023-03-13T08:45:30.069Z,67.62
2023-03-13T08:48:31.937Z,67.32
2023-03-13T08:51:35.444Z,67.18
2023-03-13T08:54:37.283Z,67.00
2023-03-13T08:57:39.110Z,66.69
2023-03-13T09:00:40.893Z,66.53
2023-03-13T09:03:43.129Z,66.07
2023-03-13T09:06:44.862Z,65.81
2023-03-13T09:09:46.686Z,65.91
2023-03-13T09:12:48.510Z,65.56
2023-03-13T09:16:19.827Z,65.32
2023-03-13T09:19:21.739Z,65.20
2023-03-13T09:22:23.526Z,64.90
2023-03-13T09:25:25.470Z,64.56
2023-03-13T09:28:27.863Z,64.27
2023-03-13T09:31:30.755Z,64.10
2023-03-13T09:34:32.762Z,64.10
2023-03-13T09:37:34.510Z,63.11
2023-03-13T09:40:48.641Z,62.63
2023-03-13T09:44:13.479Z,62.19
2023-03-13T09:47:42.272Z,61.74
2023-03-13T09:50:53.845Z,61.29
2023-03-13T09:54:10.792Z,61.03
2023-03-13T09:57:15.986Z,60.84
2023-03-13T10:00:32.396Z,60.39
2023-03-13T10:03:44.118Z,60.66
2023-03-13T10:06:48.274Z,60.68
2023-03-13T10:09:50.152Z,60.60
2023-03-13T10:13:02.993Z,60.48
2023-03-13T10:16:09.514Z,60.50
2023-03-13T10:19:17.002Z,60.13
2023-03-13T10:22:24.629Z,60.01
2023-03-13T10:25:33.793Z,59.88
2023-03-13T10:28:35.594Z,59.61
2023-03-13T10:31:39.162Z,59.39
2023-03-13T10:34:57.556Z,59.35
2023-03-13T10:38:16.972Z,59.30
2023-03-13T10:41:33.856Z,59.24
2023-03-13T10:44:35.652Z,59.03
2023-03-13T10:47:37.977Z,58.80
2023-03-13T10:50:46.761Z,58.53
2023-03-13T10:53:49.149Z,58.31
2023-03-13T10:56:51.607Z,58.14
2023-03-13T10:59:54.369Z,58.43
2023-03-13T11:02:56.414Z,57.98
2023-03-13T11:06:03.130Z,57.92
2023-03-13T11:09:13.854Z,57.58
2023-03-13T11:12:20.456Z,57.82
2023-03-13T11:15:30.143Z,57.80
2023-03-13T11:18:58.392Z,57.94
2023-03-13T11:22:16.963Z,58.15
2023-03-13T11:25:43.084Z,58.04
2023-03-13T11:28:53.824Z,57.95
2023-03-13T11:32:05.687Z,58.10
2023-03-13T11:35:45.720Z,58.21
2023-03-13T11:39:27.987Z,58.35
2023-03-13T11:42:54.474Z,58.10
2023-03-13T11:46:11.382Z,58.07
2023-03-13T11:49:18.525Z,58.04
2023-03-13T11:52:29.497Z,58.00
2023-03-13T11:55:40.047Z,57.99
2023-03-13T11:58:53.628Z,58.12
2023-03-13T12:02:15.301Z,58.19
2023-03-13T12:05:20.808Z,58.02
2023-03-13T12:08:52.568Z,57.85
2023-03-13T12:12:02.946Z,57.86
2023-03-13T12:15:13.867Z,58.02
2023-03-13T12:18:33.309Z,58.07
2023-03-13T12:21:42.193Z,58.05
2023-03-13T12:24:53.158Z,57.91
2023-03-13T12:28:04.292Z,57.84
2023-03-13T12:31:17.008Z,57.97
2023-03-13T12:34:25.013Z,58.23
2023-03-13T12:37:48.789Z,58.68
2023-03-13T12:41:19.460Z,58.95
2023-03-13T12:44:23.284Z,59.26
2023-03-13T12:47:32.326Z,59.48
2023-03-13T12:50:56.607Z,59.83
2023-03-13T12:54:21.250Z,59.92
2023-03-13T12:57:44.647Z,60.21
2023-03-13T13:00:49.615Z,60.21
2023-03-13T13:04:05.203Z,60.28
2023-03-13T13:07:21.009Z,60.42
2023-03-13T13:10:27.004Z,60.30
2023-03-13T13:13:31.301Z,60.47
2023-03-13T13:16:33.611Z,60.53
2023-03-13T13:19:41.051Z,60.52
2023-03-13T13:22:47.206Z,60.45
2023-03-13T13:25:49.578Z,60.20
2023-03-13T13:28:53.896Z,60.24
2023-03-13T13:31:59.675Z,60.38
2023-03-13T13:35:34.061Z,60.33
2023-03-13T13:38:42.784Z,60.09
2023-03-13T13:41:44.765Z,60.19
2023-03-13T13:45:14.514Z,60.29
2023-03-13T13:48:22.334Z,60.24
2023-03-13T13:51:24.986Z,60.19
2023-03-13T13:54:29.821Z,60.19
2023-03-13T13:57:36.577Z,60.17
2023-03-13T14:00:40.843Z,60.07
2023-03-13T14:03:43.206Z,59.86
2023-03-13T14:06:50.227Z,59.79
2023-03-13T14:09:57.372Z,59.80
2023-03-13T14:13:00.914Z,59.78
2023-03-13T14:16:32.642Z,59.71
2023-03-13T14:19:41.624Z,59.74
2023-03-13T14:22:47.975Z,59.73
2023-03-13T14:25:50.650Z,59.82
2023-03-13T14:28:56.855Z,59.97
2023-03-13T14:31:59.508Z,60.04
2023-03-13T14:35:02.086Z,60.21
2023-03-13T14:38:03.998Z,60.27
2023-03-13T14:41:05.884Z,60.42
2023-03-13T14:44:30.087Z,60.59
2023-03-13T14:47:32.612Z,60.89
2023-03-13T14:50:34.815Z,61.03
2023-03-13T14:53:36.832Z,61.24
2023-03-13T14:56:41.723Z,61.33
2023-03-13T14:59:43.912Z,61.30
2023-03-13T15:02:45.754Z,61.35
2023-03-13T15:05:50.325Z,61.41
2023-03-13T15:09:14.610Z,61.53
2023-03-13T15:12:20.114Z,61.43
2023-03-13T15:15:21.956Z,61.49
2023-03-13T15:18:29.643Z,61.48
2023-03-13T15:21:34.582Z,61.66
2023-03-13T15:24:36.301Z,61.60
2023-03-13T15:31:30.386Z,61.57
2023-03-13T15:34:34.852Z,61.54
2023-03-13T15:37:36.878Z,61.58
2023-03-13T15:40:38.682Z,61.64
2023-03-13T15:43:40.467Z,61.59
2023-03-13T15:46:42.505Z,61.61
2023-03-13T15:49:44.184Z,61.63
2023-03-13T15:52:46.190Z,61.64
2023-03-13T15:55:49.213Z,61.68
2023-03-13T15:58:51.218Z,61.70
2023-03-13T16:01:52.938Z,61.71
2023-03-13T16:04:57.996Z,61.74
2023-03-13T16:07:59.988Z,61.77
2023-03-13T16:11:06.977Z,61.80
2023-03-13T16:14:08.760Z,61.79
2023-03-13T16:17:15.522Z,61.77
2023-03-13T16:20:21.038Z,61.71
2023-03-13T16:23:22.898Z,61.71
2023-03-13T16:26:27.925Z,61.80
2023-03-13T16:29:30.713Z,61.73
2023-03-13T16:32:32.591Z,61.71
2023-03-13T16:35:34.811Z,61.70
2023-03-13T16:38:36.522Z,61.69
2023-03-13T16:41:38.317Z,61.73
2023-03-13T16:44:40.336Z,61.77
2023-03-13T16:47:43.096Z,61.77
2023-03-13T16:50:46.013Z,61.75
2023-03-13T16:53:50.114Z,61.78
2023-03-13T16:56:51.969Z,61.82
2023-03-13T16:59:53.861Z,61.84
2023-03-13T17:02:58.680Z,61.90
2023-03-13T17:06:00.971Z,61.94
2023-03-13T17:09:10.293Z,61.96
2023-03-13T17:12:12.157Z,61.97
2023-03-13T17:15:14.161Z,62.03
2023-03-13T17:18:16.821Z,62.08
2023-03-13T17:21:22.009Z,62.11
2023-03-13T17:24:27.285Z,62.13
2023-03-13T17:27:31.467Z,62.16
2023-03-13T17:30:34.033Z,62.20
2023-03-13T17:33:36.724Z,62.22
2023-03-13T17:36:43.951Z,62.25
2023-03-13T17:39:46.688Z,62.28
2023-03-13T17:42:51.444Z,62.34
2023-03-13T17:45:55.674Z,62.39
2023-03-13T17:49:00.471Z,62.43
2023-03-13T17:52:03.395Z,62.47
2023-03-13T17:55:07.892Z,62.53
2023-03-13T17:58:10.633Z,62.46
2023-03-13T18:01:14.308Z,62.53
2023-03-13T18:10:24.459Z,62.65
2023-03-13T18:13:28.161Z,62.68
2023-03-13T18:16:43.348Z,62.70
2023-03-13T18:19:47.909Z,62.72
2023-03-13T18:22:51.376Z,62.69
2023-03-13T18:25:57.978Z,62.66
2023-03-13T18:29:03.378Z,62.62
2023-03-13T18:32:07.700Z,62.59
2023-03-13T18:35:13.632Z,62.51
2023-03-13T18:38:19.179Z,62.46
2023-03-13T18:41:23.017Z,62.45
2023-03-13T18:44:26.472Z,62.32
2023-03-13T18:47:29.776Z,62.22
2023-03-13T18:50:32.904Z,62.15
2023-03-13T18:53:36.464Z,62.05
2023-03-13T18:56:40.014Z,61.96
2023-03-13T18:59:44.235Z,61.86
2023-03-13T19:02:47.509Z,61.82
2023-03-13T19:05:50.798Z,61.80
2023-03-13T19:08:57.593Z,61.81
2023-03-13T19:12:00.950Z,61.81
2023-03-13T19:15:04.279Z,61.82
2023-03-13T19:18:11.846Z,61.87
2023-03-13T19:21:26.622Z,61.89
2023-03-13T19:24:29.830Z,61.94
2023-03-13T19:27:33.240Z,62.01
2023-03-13T19:30:36.944Z,62.07
2023-03-13T19:33:40.452Z,62.15
2023-03-13T19:36:48.748Z,62.19
2023-03-13T19:39:51.893Z,62.22
2023-03-13T19:42:55.156Z,62.32
2023-03-13T19:45:58.321Z,62.43
2023-03-13T19:49:02.428Z,62.54
2023-03-13T19:52:05.541Z,62.61
2023-03-13T19:55:08.916Z,62.77
2023-03-13T19:58:12.901Z,63.19
2023-03-13T20:01:18.001Z,63.15
2023-03-13T20:04:21.752Z,63.12
2023-03-13T20:07:24.908Z,63.03
2023-03-13T20:10:27.966Z,62.77
2023-03-13T20:13:31.069Z,62.60
2023-03-13T20:16:35.291Z,62.45
2023-03-13T20:19:38.532Z,62.31
2023-03-13T20:22:41.724Z,62.10
2023-03-13T20:25:44.880Z,62.06
2023-03-13T20:28:52.041Z,61.87
2023-03-13T20:31:55.963Z,61.74
2023-03-13T20:34:59.067Z,61.53
2023-03-13T20:38:05.023Z,61.38
2023-03-13T20:41:08.895Z,61.26
2023-03-13T20:44:12.037Z,61.19
2023-03-13T20:47:15.208Z,60.99
2023-03-13T20:50:19.725Z,60.80
2023-03-13T20:53:26.408Z,60.81
2023-03-13T20:56:29.512Z,60.61
2023-03-13T20:59:32.580Z,60.48
2023-03-13T21:02:35.720Z,60.24
2023-03-13T21:05:39.892Z,60.04
2023-03-13T21:08:43.898Z,59.94
2023-03-13T21:11:47.203Z,59.78
2023-03-13T21:14:53.541Z,59.45
2023-03-13T21:17:56.948Z,59.40
2023-03-13T21:21:03.291Z,59.15
2023-03-13T21:24:06.751Z,59.08
2023-03-13T21:27:09.878Z,58.86
2023-03-13T21:30:17.510Z,58.63
2023-03-13T21:33:20.639Z,58.54
2023-03-13T21:36:23.939Z,58.44
2023-03-13T21:39:27.191Z,58.47
2023-03-13T21:42:30.393Z,58.39
2023-03-13T21:45:34.791Z,58.37
2023-03-13T21:48:42.168Z,58.27
2023-03-13T21:51:45.338Z,58.28
2023-03-13T21:54:49.122Z,58.24
2023-03-13T21:57:52.264Z,58.21
2023-03-13T22:00:57.203Z,58.04
2023-03-13T22:04:00.397Z,57.93
2023-03-13T22:07:04.023Z,57.88
2023-03-13T22:10:07.496Z,57.74
2023-03-13T22:13:10.822Z,57.57
2023-03-13T22:16:13.951Z,57.63
2023-03-13T22:19:20.371Z,57.58
2023-03-13T22:22:23.491Z,57.61
2023-03-13T22:25:26.607Z,57.53
2023-03-13T22:28:29.731Z,57.41
2023-03-13T22:31:33.010Z,57.37
2023-03-13T22:34:36.234Z,57.27
2023-03-13T22:37:39.374Z,57.21
2023-03-13T22:40:42.492Z,57.53
2023-03-13T22:43:45.577Z,57.58
2023-03-13T22:46:48.717Z,57.66
2023-03-13T22:49:53.536Z,57.76
2023-03-13T22:52:56.581Z,57.83
2023-03-13T22:55:59.841Z,57.88
2023-03-13T22:59:03.694Z,57.91
2023-03-13T23:02:06.786Z,57.97
2023-03-13T23:05:10.520Z,57.94
2023-03-13T23:08:15.578Z,58.01
2023-03-13T23:11:19.504Z,58.09
2023-03-13T23:14:22.644Z,58.16
2023-03-13T23:17:27.111Z,58.19
2023-03-13T23:20:30.519Z,58.30
2023-03-13T23:23:34.518Z,58.41
2023-03-13T23:26:37.736Z,58.45
2023-03-13T23:29:40.886Z,58.48
2023-03-13T23:32:46.696Z,58.57
2023-03-13T23:35:49.913Z,58.68
2023-03-13T23:38:54.122Z,58.81
2023-03-13T23:41:57.802Z,58.93
2023-03-13T23:45:02.553Z,59.12
2023-03-13T23:48:05.827Z,59.43
2023-03-13T23:51:09.089Z,59.68
2023-03-13T23:54:12.208Z,59.81
2023-03-13T23:57:15.275Z,59.81
